sensor_id;sensor_type;location;lat;lon;timestamp;pressure;altitude;pressure_sealevel;temperature;humidity
75359;BME280;64046;51.978;5.934;2023-11-21T00:01:49;100931.91;;;14.59;93.13
75359;BME280;64046;51.978;5.934;2023-11-21T00:04:20;100920.69;;;14.55;93.43
75359;BME280;64046;51.978;5.934;2023-11-21T00:06:51;100922.66;;;14.51;93.42
75359;BME280;64046;51.978;5.934;2023-11-21T00:09:21;100928.75;;;14.68;93.00
75359;BME280;64046;51.978;5.934;2023-11-21T00:11:55;100931.28;;;14.69;92.85
75359;BME280;64046;51.978;5.934;2023-11-21T00:14:26;100937.06;;;14.46;93.44
75359;BME280;64046;51.978;5.934;2023-11-21T00:16:56;100933.78;;;14.57;93.28
75359;BME280;64046;51.978;5.934;2023-11-21T00:19:25;100938.06;;;14.43;93.30
75359;BME280;64046;51.978;5.934;2023-11-21T00:21:59;100951.63;;;14.67;92.34
75359;BME280;64046;51.978;5.934;2023-11-21T00:24:32;100937.09;;;14.60;92.79
75359;BME280;64046;51.978;5.934;2023-11-21T00:27:05;100943.03;;;14.64;92.40
75359;BME280;64046;51.978;5.934;2023-11-21T00:29:37;100944.09;;;14.45;92.74
75359;BME280;64046;51.978;5.934;2023-11-21T00:32:09;100945.09;;;14.59;92.50
75359;BME280;64046;51.978;5.934;2023-11-21T00:34:40;100946.25;;;14.39;92.76
75359;BME280;64046;51.978;5.934;2023-11-21T00:37:10;100948.44;;;14.46;92.98
75359;BME280;64046;51.978;5.934;2023-11-21T00:39:40;100950.31;;;14.44;92.91
75359;BME280;64046;51.978;5.934;2023-11-21T00:42:17;100952.84;;;14.62;91.97
75359;BME280;64046;51.978;5.934;2023-11-21T00:44:49;100946.94;;;14.57;92.33
75359;BME280;64046;51.978;5.934;2023-11-21T00:47:22;100946.53;;;14.48;92.63
75359;BME280;64046;51.978;5.934;2023-11-21T00:49:55;100952.78;;;14.47;92.78
75359;BME280;64046;51.978;5.934;2023-11-21T00:52:24;100962.22;;;14.35;93.39
75359;BME280;64046;51.978;5.934;2023-11-21T00:54:58;100964.84;;;14.51;93.38
75359;BME280;64046;51.978;5.934;2023-11-21T00:57:34;100961.59;;;14.62;92.76
75359;BME280;64046;51.978;5.934;2023-11-21T01:00:06;100962.88;;;14.55;93.44
75359;BME280;64046;51.978;5.934;2023-11-21T01:02:43;100968.03;;;14.57;93.37
75359;BME280;64046;51.978;5.934;2023-11-21T01:05:15;100974.22;;;14.41;93.70
75359;BME280;64046;51.978;5.934;2023-11-21T01:07:47;100976.66;;;14.60;93.33
75359;BME280;64046;51.978;5.934;2023-11-21T01:10:17;100980.06;;;14.46;93.56
75359;BME280;64046;51.978;5.934;2023-11-21T01:12:51;100980.56;;;14.69;93.43
75359;BME280;64046;51.978;5.934;2023-11-21T01:15:23;100985.84;;;14.53;93.70
75359;BME280;64046;51.978;5.934;2023-11-21T01:17:54;100989.22;;;14.71;93.55
75359;BME280;64046;51.978;5.934;2023-11-21T01:20:27;100995.78;;;14.64;93.78
75359;BME280;64046;51.978;5.934;2023-11-21T01:22:56;101007.28;;;14.63;93.91
75359;BME280;64046;51.978;5.934;2023-11-21T01:25:28;101004.19;;;14.70;93.72
75359;BME280;64046;51.978;5.934;2023-11-21T01:28:04;101014.03;;;14.83;93.41
75359;BME280;64046;51.978;5.934;2023-11-21T01:30:34;101012.31;;;14.67;93.91
75359;BME280;64046;51.978;5.934;2023-11-21T01:33:04;101017.97;;;14.60;94.50
75359;BME280;64046;51.978;5.934;2023-11-21T01:35:34;101016.19;;;14.60;94.66
75359;BME280;64046;51.978;5.934;2023-11-21T01:38:07;101017.13;;;14.59;94.75
75359;BME280;64046;51.978;5.934;2023-11-21T01:40:37;101013.75;;;14.57;94.90
75359;BME280;64046;51.978;5.934;2023-11-21T01:43:11;101011.19;;;14.72;94.76
75359;BME280;64046;51.978;5.934;2023-11-21T01:45:43;101018.69;;;14.47;95.99
75359;BME280;64046;51.978;5.934;2023-11-21T01:48:13;101013.25;;;14.50;96.42
75359;BME280;64046;51.978;5.934;2023-11-21T01:50:44;101017.59;;;14.51;96.51
75359;BME280;64046;51.978;5.934;2023-11-21T01:53:17;101013.25;;;14.50;96.46
75359;BME280;64046;51.978;5.934;2023-11-21T01:55:49;101015.19;;;14.63;96.33
75359;BME280;64046;51.978;5.934;2023-11-21T01:58:25;101010.50;;;14.68;96.16
75359;BME280;64046;51.978;5.934;2023-11-21T02:00:57;101016.63;;;14.68;96.28
75359;BME280;64046;51.978;5.934;2023-11-21T02:03:32;101009.56;;;14.69;96.18
75359;BME280;64046;51.978;5.934;2023-11-21T02:06:09;101007.59;;;14.73;96.01
75359;BME280;64046;51.978;5.934;2023-11-21T02:08:39;101013.81;;;14.56;96.77
75359;BME280;64046;51.978;5.934;2023-11-21T02:11:13;101018.34;;;14.53;96.66
75359;BME280;64046;51.978;5.934;2023-11-21T02:13:46;101022.75;;;14.69;96.28
75359;BME280;64046;51.978;5.934;2023-11-21T02:16:20;101028.03;;;14.53;96.97
75359;BME280;64046;51.978;5.934;2023-11-21T02:18:53;101029.81;;;14.52;97.15
75359;BME280;64046;51.978;5.934;2023-11-21T02:21:25;101029.97;;;14.65;96.92
75359;BME280;64046;51.978;5.934;2023-11-21T02:23:59;101030.59;;;14.70;96.69
75359;BME280;64046;51.978;5.934;2023-11-21T02:26:38;101032.25;;;14.56;97.01
75359;BME280;64046;51.978;5.934;2023-11-21T02:29:10;101040.19;;;14.72;96.51
75359;BME280;64046;51.978;5.934;2023-11-21T02:31:52;101035.69;;;14.58;96.56
75359;BME280;64046;51.978;5.934;2023-11-21T02:34:28;101040.44;;;14.67;96.62
75359;BME280;64046;51.978;5.934;2023-11-21T02:36:58;101040.72;;;14.46;97.21
75359;BME280;64046;51.978;5.934;2023-11-21T02:39:31;101041.41;;;14.66;97.07
75359;BME280;64046;51.978;5.934;2023-11-21T02:42:07;101041.41;;;14.50;97.30
75359;BME280;64046;51.978;5.934;2023-11-21T02:44:37;101038.84;;;14.48;97.63
75359;BME280;64046;51.978;5.934;2023-11-21T02:47:09;101037.41;;;14.43;97.95
75359;BME280;64046;51.978;5.934;2023-11-21T02:49:40;101037.25;;;14.46;97.90
75359;BME280;64046;51.978;5.934;2023-11-21T02:52:16;101043.53;;;14.43;98.17
75359;BME280;64046;51.978;5.934;2023-11-21T02:54:49;101046.97;;;14.60;97.45
75359;BME280;64046;51.978;5.934;2023-11-21T02:57:22;101043.00;;;14.52;97.75
75359;BME280;64046;51.978;5.934;2023-11-21T02:59:51;101046.78;;;14.32;98.64
75359;BME280;64046;51.978;5.934;2023-11-21T03:02:21;101040.66;;;14.32;98.46
75359;BME280;64046;51.978;5.934;2023-11-21T03:04:51;101046.03;;;14.30;98.50
75359;BME280;64046;51.978;5.934;2023-11-21T03:07:23;101045.31;;;14.27;98.75
75359;BME280;64046;51.978;5.934;2023-11-21T03:09:57;101051.44;;;14.43;98.27
75359;BME280;64046;51.978;5.934;2023-11-21T03:12:26;101049.06;;;14.23;99.18
75359;BME280;64046;51.978;5.934;2023-11-21T03:14:58;101050.78;;;14.24;99.36
75359;BME280;64046;51.978;5.934;2023-11-21T03:17:31;101047.78;;;14.30;99.30
75359;BME280;64046;51.978;5.934;2023-11-21T03:20:05;101047.28;;;14.39;99.32
75359;BME280;64046;51.978;5.934;2023-11-21T03:22:38;101050.38;;;14.31;99.17
75359;BME280;64046;51.978;5.934;2023-11-21T03:25:14;101056.19;;;14.52;98.54
75359;BME280;64046;51.978;5.934;2023-11-21T03:27:50;101059.00;;;14.49;98.80
75359;BME280;64046;51.978;5.934;2023-11-21T03:30:19;101062.59;;;14.32;99.45
75359;BME280;64046;51.978;5.934;2023-11-21T03:32:49;101062.75;;;14.29;99.31
75359;BME280;64046;51.978;5.934;2023-11-21T03:35:20;101062.50;;;14.34;99.74
75359;BME280;64046;51.978;5.934;2023-11-21T03:37:54;101073.56;;;14.41;99.57
75359;BME280;64046;51.978;5.934;2023-11-21T03:40:26;101081.91;;;14.33;99.69
75359;BME280;64046;51.978;5.934;2023-11-21T03:42:58;101074.50;;;14.08;100.00
75359;BME280;64046;51.978;5.934;2023-11-21T03:45:28;101070.16;;;14.07;100.00
75359;BME280;64046;51.978;5.934;2023-11-21T03:48:00;101072.03;;;14.05;100.00
75359;BME280;64046;51.978;5.934;2023-11-21T03:50:31;101072.13;;;14.03;100.00
75359;BME280;64046;51.978;5.934;2023-11-21T03:53:03;101065.41;;;14.13;100.00
75359;BME280;64046;51.978;5.934;2023-11-21T03:55:35;101067.59;;;14.21;100.00
75359;BME280;64046;51.978;5.934;2023-11-21T03:58:03;101066.59;;;14.08;100.00
75359;BME280;64046;51.978;5.934;2023-11-21T04:00:34;101070.75;;;14.28;100.00
75359;BME280;64046;51.978;5.934;2023-11-21T04:03:05;101074.00;;;14.33;100.00
75359;BME280;64046;51.978;5.934;2023-11-21T04:05:38;101074.75;;;14.19;100.00
75359;BME280;64046;51.978;5.934;2023-11-21T04:08:11;101079.09;;;14.36;100.00
75359;BME280;64046;51.978;5.934;2023-11-21T04:10:46;101078.16;;;14.37;100.00
75359;BME280;64046;51.978;5.934;2023-11-21T04:13:17;101091.31;;;14.21;100.00
75359;BME280;64046;51.978;5.934;2023-11-21T04:15:47;101092.28;;;14.20;100.00
75359;BME280;64046;51.978;5.934;2023-11-21T04:18:17;101095.09;;;14.17;100.00
75359;BME280;64046;51.978;5.934;2023-11-21T04:20:50;101095.41;;;14.11;100.00
75359;BME280;64046;51.978;5.934;2023-11-21T04:23:24;101101.47;;;14.29;100.00
75359;BME280;64046;51.978;5.934;2023-11-21T04:25:57;101106.72;;;14.29;100.00
75359;BME280;64046;51.978;5.934;2023-11-21T04:28:40;101111.47;;;14.38;99.75
75359;BME280;64046;51.978;5.934;2023-11-21T04:31:13;101110.22;;;14.29;100.00
75359;BME280;64046;51.978;5.934;2023-11-21T04:33:43;101113.53;;;14.17;100.00
75359;BME280;64046;51.978;5.934;2023-11-21T04:36:13;101110.91;;;14.17;100.00
75359;BME280;64046;51.978;5.934;2023-11-21T04:38:43;101111.75;;;14.17;100.00
75359;BME280;64046;51.978;5.934;2023-11-21T04:41:22;101117.75;;;14.35;100.00
75359;BME280;64046;51.978;5.934;2023-11-21T04:44:04;101122.03;;;14.22;100.00
75359;BME280;64046;51.978;5.934;2023-11-21T04:46:35;101126.47;;;14.22;100.00
75359;BME280;64046;51.978;5.934;2023-11-21T04:49:07;101136.41;;;14.32;100.00
75359;BME280;64046;51.978;5.934;2023-11-21T04:51:37;101136.22;;;14.19;100.00
75359;BME280;64046;51.978;5.934;2023-11-21T04:54:07;101146.66;;;14.21;100.00
75359;BME280;64046;51.978;5.934;2023-11-21T04:56:40;101139.63;;;14.38;100.00
75359;BME280;64046;51.978;5.934;2023-11-21T04:59:13;101144.66;;;14.42;100.00
75359;BME280;64046;51.978;5.934;2023-11-21T05:01:54;101154.84;;;14.48;99.39
75359;BME280;64046;51.978;5.934;2023-11-21T05:04:23;101155.84;;;14.30;100.00
75359;BME280;64046;51.978;5.934;2023-11-21T05:07:02;101156.22;;;14.40;99.91
75359;BME280;64046;51.978;5.934;2023-11-21T05:09:34;101155.19;;;14.26;100.00
75359;BME280;64046;51.978;5.934;2023-11-21T05:12:11;101152.38;;;14.45;99.56
75359;BME280;64046;51.978;5.934;2023-11-21T05:14:44;101157.06;;;14.24;99.98
75359;BME280;64046;51.978;5.934;2023-11-21T05:17:15;101159.00;;;14.21;100.00
75359;BME280;64046;51.978;5.934;2023-11-21T05:19:44;101159.19;;;14.17;100.00
75359;BME280;64046;51.978;5.934;2023-11-21T05:22:16;101161.22;;;14.28;100.00
75359;BME280;64046;51.978;5.934;2023-11-21T05:24:48;101168.13;;;14.31;100.00
75359;BME280;64046;51.978;5.934;2023-11-21T05:27:23;101166.94;;;14.36;100.00
75359;BME280;64046;51.978;5.934;2023-11-21T05:29:56;101173.97;;;14.20;100.00
75359;BME280;64046;51.978;5.934;2023-11-21T05:32:25;101174.66;;;14.24;100.00
75359;BME280;64046;51.978;5.934;2023-11-21T05:34:57;101179.09;;;14.23;100.00
75359;BME280;64046;51.978;5.934;2023-11-21T05:37:29;101188.44;;;14.29;100.00
75359;BME280;64046;51.978;5.934;2023-11-21T05:40:06;101189.03;;;14.34;100.00
75359;BME280;64046;51.978;5.934;2023-11-21T05:42:45;101183.28;;;14.43;99.45
75359;BME280;64046;51.978;5.934;2023-11-21T05:45:19;101187.84;;;14.24;100.00
75359;BME280;64046;51.978;5.934;2023-11-21T05:47:53;101195.91;;;14.21;100.00
75359;BME280;64046;51.978;5.934;2023-11-21T05:50:23;101196.66;;;14.23;100.00
75359;BME280;64046;51.978;5.934;2023-11-21T05:52:53;101204.53;;;14.40;100.00
75359;BME280;64046;51.978;5.934;2023-11-21T05:55:26;101207.00;;;14.27;100.00
75359;BME280;64046;51.978;5.934;2023-11-21T05:58:07;101212.09;;;14.46;99.32
75359;BME280;64046;51.978;5.934;2023-11-21T06:00:38;101222.09;;;14.24;100.00
75359;BME280;64046;51.978;5.934;2023-11-21T06:03:20;101215.66;;;14.29;100.00
75359;BME280;64046;51.978;5.934;2023-11-21T06:05:51;101217.28;;;14.32;100.00
75359;BME280;64046;51.978;5.934;2023-11-21T06:08:21;101224.41;;;14.30;100.00
75359;BME280;64046;51.978;5.934;2023-11-21T06:10:57;101226.19;;;14.29;100.00
75359;BME280;64046;51.978;5.934;2023-11-21T06:13:31;101221.66;;;14.49;99.74
75359;BME280;64046;51.978;5.934;2023-11-21T06:16:06;101231.00;;;14.54;99.63
75359;BME280;64046;51.978;5.934;2023-11-21T06:18:36;101236.25;;;14.39;100.00
75359;BME280;64046;51.978;5.934;2023-11-21T06:21:09;101235.41;;;14.54;99.72
75359;BME280;64046;51.978;5.934;2023-11-21T06:23:43;101233.47;;;14.42;99.86
75359;BME280;64046;51.978;5.934;2023-11-21T06:26:15;101244.38;;;14.51;99.94
75359;BME280;64046;51.978;5.934;2023-11-21T06:28:47;101246.66;;;14.58;99.71
75359;BME280;64046;51.978;5.934;2023-11-21T06:31:20;101247.31;;;14.45;100.00
75359;BME280;64046;51.978;5.934;2023-11-21T06:33:49;101248.50;;;14.40;100.00
75359;BME280;64046;51.978;5.934;2023-11-21T06:36:21;101244.69;;;14.45;100.00
75359;BME280;64046;51.978;5.934;2023-11-21T06:38:51;101248.94;;;14.48;100.00
75359;BME280;64046;51.978;5.934;2023-11-21T06:41:22;101248.94;;;14.48;100.00
75359;BME280;64046;51.978;5.934;2023-11-21T06:43:56;101255.66;;;14.53;100.00
75359;BME280;64046;51.978;5.934;2023-11-21T06:46:28;101255.84;;;14.50;100.00
75359;BME280;64046;51.978;5.934;2023-11-21T06:48:59;101264.50;;;14.52;100.00
75359;BME280;64046;51.978;5.934;2023-11-21T06:51:29;101261.75;;;14.38;100.00
75359;BME280;64046;51.978;5.934;2023-11-21T06:53:59;101264.41;;;14.38;100.00
75359;BME280;64046;51.978;5.934;2023-11-21T06:56:29;101265.00;;;14.43;100.00
75359;BME280;64046;51.978;5.934;2023-11-21T06:59:03;101272.09;;;14.59;100.00
75359;BME280;64046;51.978;5.934;2023-11-21T07:01:38;101271.16;;;14.60;100.00
75359;BME280;64046;51.978;5.934;2023-11-21T07:04:10;101267.56;;;14.45;100.00
75359;BME280;64046;51.978;5.934;2023-11-21T07:06:49;101272.75;;;14.46;100.00
75359;BME280;64046;51.978;5.934;2023-11-21T07:09:21;101274.22;;;14.52;100.00
75359;BME280;64046;51.978;5.934;2023-11-21T07:11:52;101282.38;;;14.47;100.00
75359;BME280;64046;51.978;5.934;2023-11-21T07:14:25;101293.66;;;14.67;100.00
75359;BME280;64046;51.978;5.934;2023-11-21T07:16:56;101293.69;;;14.49;100.00
75359;BME280;64046;51.978;5.934;2023-11-21T07:19:25;101315.66;;;14.50;100.00
75359;BME280;64046;51.978;5.934;2023-11-21T07:21:57;101310.34;;;14.67;100.00
75359;BME280;64046;51.978;5.934;2023-11-21T07:24:28;101322.44;;;14.54;100.00
75359;BME280;64046;51.978;5.934;2023-11-21T07:26:59;101318.94;;;14.71;100.00
75359;BME280;64046;51.978;5.934;2023-11-21T07:29:41;101328.22;;;14.78;100.00
75359;BME280;64046;51.978;5.934;2023-11-21T07:32:14;101329.34;;;14.57;100.00
75359;BME280;64046;51.978;5.934;2023-11-21T07:34:46;101326.69;;;14.74;100.00
75359;BME280;64046;51.978;5.934;2023-11-21T07:37:21;101321.50;;;14.73;100.00
75359;BME280;64046;51.978;5.934;2023-11-21T07:39:55;101334.63;;;14.57;100.00
75359;BME280;64046;51.978;5.934;2023-11-21T07:42:26;101333.84;;;14.54;100.00
75359;BME280;64046;51.978;5.934;2023-11-21T07:44:58;101332.66;;;14.78;100.00
75359;BME280;64046;51.978;5.934;2023-11-21T07:47:29;101345.75;;;14.63;100.00
75359;BME280;64046;51.978;5.934;2023-11-21T07:50:06;101341.19;;;14.83;100.00
75359;BME280;64046;51.978;5.934;2023-11-21T07:52:40;101339.31;;;14.85;100.00
75359;BME280;64046;51.978;5.934;2023-11-21T07:55:29;101345.03;;;14.93;100.00
75359;BME280;64046;51.978;5.934;2023-11-21T07:58:00;101355.69;;;14.74;100.00
75359;BME280;64046;51.978;5.934;2023-11-21T08:00:34;101359.31;;;14.89;100.00
75359;BME280;64046;51.978;5.934;2023-11-21T08:03:06;101371.44;;;14.76;100.00
75359;BME280;64046;51.978;5.934;2023-11-21T08:05:35;101361.16;;;14.71;100.00
75359;BME280;64046;51.978;5.934;2023-11-21T08:08:05;101374.97;;;14.76;100.00
75359;BME280;64046;51.978;5.934;2023-11-21T08:10:35;101376.38;;;14.66;100.00
75359;BME280;64046;51.978;5.934;2023-11-21T08:13:10;101383.31;;;14.84;100.00
75359;BME280;64046;51.978;5.934;2023-11-21T08:15:49;101390.56;;;14.97;100.00
75359;BME280;64046;51.978;5.934;2023-11-21T08:18:18;101392.34;;;14.80;100.00
75359;BME280;64046;51.978;5.934;2023-11-21T08:20:52;101399.28;;;14.99;100.00
75359;BME280;64046;51.978;5.934;2023-11-21T08:23:26;101397.22;;;15.04;100.00
75359;BME280;64046;51.978;5.934;2023-11-21T08:25:58;101406.81;;;14.89;100.00
75359;BME280;64046;51.978;5.934;2023-11-21T08:28:31;101414.69;;;15.07;100.00
75359;BME280;64046;51.978;5.934;2023-11-21T08:31:05;101416.06;;;15.14;100.00
75359;BME280;64046;51.978;5.934;2023-11-21T08:33:37;101423.31;;;14.93;100.00
75359;BME280;64046;51.978;5.934;2023-11-21T08:36:09;101424.78;;;14.98;100.00
75359;BME280;64046;51.978;5.934;2023-11-21T08:38:41;101430.44;;;15.08;100.00
75359;BME280;64046;51.978;5.934;2023-11-21T08:41:12;101424.78;;;14.98;100.00
75359;BME280;64046;51.978;5.934;2023-11-21T08:43:42;101436.13;;;15.00;100.00
75359;BME280;64046;51.978;5.934;2023-11-21T08:46:17;101432.59;;;15.17;100.00
75359;BME280;64046;51.978;5.934;2023-11-21T08:48:54;101438.19;;;15.11;100.00
75359;BME280;64046;51.978;5.934;2023-11-21T08:51:28;101440.03;;;14.93;100.00
75359;BME280;64046;51.978;5.934;2023-11-21T08:53:58;101431.25;;;14.93;100.00
75359;BME280;64046;51.978;5.934;2023-11-21T08:56:30;101434.66;;;14.95;100.00
75359;BME280;64046;51.978;5.934;2023-11-21T08:59:02;101432.88;;;14.95;100.00
75359;BME280;64046;51.978;5.934;2023-11-21T09:01:34;101439.28;;;15.07;100.00
75359;BME280;64046;51.978;5.934;2023-11-21T09:04:09;101436.63;;;15.07;100.00
75359;BME280;64046;51.978;5.934;2023-11-21T09:06:40;101447.28;;;15.05;100.00
75359;BME280;64046;51.978;5.934;2023-11-21T09:09:13;101454.81;;;15.13;100.00
75359;BME280;64046;51.978;5.934;2023-11-21T09:11:44;101458.81;;;15.20;100.00
75359;BME280;64046;51.978;5.934;2023-11-21T09:14:15;101462.03;;;15.10;100.00
75359;BME280;64046;51.978;5.934;2023-11-21T09:16:48;101464.53;;;15.29;100.00
75359;BME280;64046;51.978;5.934;2023-11-21T09:19:18;101468.94;;;15.12;100.00
75359;BME280;64046;51.978;5.934;2023-11-21T09:21:52;101473.91;;;15.34;100.00
75359;BME280;64046;51.978;5.934;2023-11-21T09:24:24;101475.75;;;15.16;100.00
75359;BME280;64046;51.978;5.934;2023-11-21T09:26:56;101483.88;;;15.29;100.00
75359;BME280;64046;51.978;5.934;2023-11-21T09:29:27;101483.34;;;15.22;100.00
75359;BME280;64046;51.978;5.934;2023-11-21T09:32:04;101483.28;;;15.40;100.00
75359;BME280;64046;51.978;5.934;2023-11-21T09:34:39;101498.53;;;15.35;100.00
75359;BME280;64046;51.978;5.934;2023-11-21T09:37:18;101502.94;;;15.52;100.00
75359;BME280;64046;51.978;5.934;2023-11-21T09:39:56;101505.38;;;15.39;100.00
75359;BME280;64046;51.978;5.934;2023-11-21T09:42:32;101507.09;;;15.56;100.00
75359;BME280;64046;51.978;5.934;2023-11-21T09:45:11;101517.41;;;15.61;100.00
75359;BME280;64046;51.978;5.934;2023-11-21T09:47:50;101515.53;;;15.63;100.00
75359;BME280;64046;51.978;5.934;2023-11-21T09:50:25;101521.41;;;15.52;100.00
75359;BME280;64046;51.978;5.934;2023-11-21T09:53:02;101526.59;;;15.53;100.00
75359;BME280;64046;51.978;5.934;2023-11-21T09:55:39;101525.53;;;15.40;100.00
75359;BME280;64046;51.978;5.934;2023-11-21T09:58:18;101528.81;;;15.45;100.00
75359;BME280;64046;51.978;5.934;2023-11-21T10:00:58;101540.91;;;15.49;100.00
75359;BME280;64046;51.978;5.934;2023-11-21T10:03:35;101538.63;;;15.59;100.00
75359;BME280;64046;51.978;5.934;2023-11-21T10:06:06;101538.94;;;15.53;100.00
75359;BME280;64046;51.978;5.934;2023-11-21T10:08:39;101540.50;;;15.57;100.00
75359;BME280;64046;51.978;5.934;2023-11-21T10:11:16;101539.34;;;15.79;100.00
75359;BME280;64046;51.978;5.934;2023-11-21T10:13:49;101544.50;;;15.82;100.00
75359;BME280;64046;51.978;5.934;2023-11-21T10:16:31;101550.09;;;15.91;100.00
75359;BME280;64046;51.978;5.934;2023-11-21T10:19:06;101559.56;;;15.96;100.00
75359;BME280;64046;51.978;5.934;2023-11-21T10:21:50;101559.00;;;16.06;100.00
75359;BME280;64046;51.978;5.934;2023-11-21T10:24:20;101554.81;;;15.86;100.00
75359;BME280;64046;51.978;5.934;2023-11-21T10:26:55;101554.72;;;16.04;100.00
75359;BME280;64046;51.978;5.934;2023-11-21T10:29:29;101565.91;;;16.09;100.00
75359;BME280;64046;51.978;5.934;2023-11-21T10:32:03;101565.56;;;15.99;100.00
75359;BME280;64046;51.978;5.934;2023-11-21T10:34:36;101567.50;;;16.12;100.00
75359;BME280;64046;51.978;5.934;2023-11-21T10:37:11;101567.28;;;16.16;100.00
75359;BME280;64046;51.978;5.934;2023-11-21T10:39:42;101566.22;;;16.03;100.00
75359;BME280;64046;51.978;5.934;2023-11-21T10:42:12;101571.09;;;16.11;100.00
75359;BME280;64046;51.978;5.934;2023-11-21T10:44:47;101565.81;;;16.26;100.00
75359;BME280;64046;51.978;5.934;2023-11-21T10:47:21;101576.47;;;16.25;100.00
75359;BME280;64046;51.978;5.934;2023-11-21T10:49:55;101568.28;;;16.30;100.00
75359;BME280;64046;51.978;5.934;2023-11-21T10:52:28;101579.03;;;16.26;100.00
75359;BME280;64046;51.978;5.934;2023-11-21T10:55:18;101583.28;;;16.45;100.00
75359;BME280;64046;51.978;5.934;2023-11-21T10:57:53;101583.13;;;16.32;100.00
75359;BME280;64046;51.978;5.934;2023-11-21T11:00:39;101585.94;;;16.29;100.00
75359;BME280;64046;51.978;5.934;2023-11-21T11:03:09;101590.28;;;16.14;100.00
75359;BME280;64046;51.978;5.934;2023-11-21T11:05:45;101593.94;;;16.27;100.00
75359;BME280;64046;51.978;5.934;2023-11-21T11:08:18;101590.63;;;16.24;100.00
75359;BME280;64046;51.978;5.934;2023-11-21T11:10:53;101601.88;;;16.12;100.00
75359;BME280;64046;51.978;5.934;2023-11-21T11:13:23;101603.75;;;16.09;100.00
75359;BME280;64046;51.978;5.934;2023-11-21T11:15:59;101611.53;;;16.29;100.00
75359;BME280;64046;51.978;5.934;2023-11-21T11:18:34;101626.38;;;15.99;100.00
75359;BME280;64046;51.978;5.934;2023-11-21T11:21:19;101626.38;;;16.15;100.00
75359;BME280;64046;51.978;5.934;2023-11-21T11:24:07;101629.00;;;15.99;100.00
75359;BME280;64046;51.978;5.934;2023-11-21T11:26:47;101635.88;;;15.86;100.00
75359;BME280;64046;51.978;5.934;2023-11-21T11:29:30;101645.69;;;15.84;100.00
75359;BME280;64046;51.978;5.934;2023-11-21T11:32:16;101652.19;;;15.77;100.00
75359;BME280;64046;51.978;5.934;2023-11-21T11:34:56;101638.44;;;15.70;100.00
75359;BME280;64046;51.978;5.934;2023-11-21T11:37:36;101646.69;;;15.64;100.00
75359;BME280;64046;51.978;5.934;2023-11-21T11:40:07;101649.03;;;15.52;100.00
75359;BME280;64046;51.978;5.934;2023-11-21T11:42:38;101650.34;;;15.61;100.00
75359;BME280;64046;51.978;5.934;2023-11-21T11:45:26;101659.41;;;15.73;100.00
75359;BME280;64046;51.978;5.934;2023-11-21T11:48:08;101652.16;;;15.61;100.00
75359;BME280;64046;51.978;5.934;2023-11-21T11:53:33;101662.09;;;15.55;100.00
75359;BME280;64046;51.978;5.934;2023-11-21T11:56:23;101657.28;;;15.64;100.00
75359;BME280;64046;51.978;5.934;2023-11-21T11:59:01;101664.59;;;15.41;100.00
75359;BME280;64046;51.978;5.934;2023-11-21T12:01:33;101668.94;;;15.42;100.00
75359;BME280;64046;51.978;5.934;2023-11-21T12:04:25;101666.75;;;15.68;100.00
75359;BME280;64046;51.978;5.934;2023-11-21T12:07:17;101668.84;;;15.61;100.00
75359;BME280;64046;51.978;5.934;2023-11-21T12:09:51;101669.47;;;15.66;100.00
75359;BME280;64046;51.978;5.934;2023-11-21T12:12:22;101676.09;;;15.57;100.00
75359;BME280;64046;51.978;5.934;2023-11-21T12:14:53;101678.88;;;15.72;100.00
75359;BME280;64046;51.978;5.934;2023-11-21T12:17:22;101688.66;;;15.52;100.00
75359;BME280;64046;51.978;5.934;2023-11-21T12:20:02;101692.69;;;15.77;100.00
75359;BME280;64046;51.978;5.934;2023-11-21T12:22:42;101697.38;;;15.72;100.00
75359;BME280;64046;51.978;5.934;2023-11-21T12:25:20;101702.31;;;15.78;100.00
75359;BME280;64046;51.978;5.934;2023-11-21T12:27:51;101702.19;;;15.64;100.00
75359;BME280;64046;51.978;5.934;2023-11-21T12:30:25;101709.19;;;15.65;100.00
75359;BME280;64046;51.978;5.934;2023-11-21T12:32:59;101719.97;;;15.60;100.00
75359;BME280;64046;51.978;5.934;2023-11-21T12:35:35;101708.63;;;15.58;100.00
75359;BME280;64046;51.978;5.934;2023-11-21T12:38:07;101715.31;;;15.48;100.00
75359;BME280;64046;51.978;5.934;2023-11-21T12:40:48;101719.69;;;15.49;100.00
75359;BME280;64046;51.978;5.934;2023-11-21T12:43:20;101716.41;;;15.44;100.00
75359;BME280;64046;51.978;5.934;2023-11-21T12:46:04;101722.25;;;15.50;100.00
75359;BME280;64046;51.978;5.934;2023-11-21T12:48:33;101720.03;;;15.23;100.00
75359;BME280;64046;51.978;5.934;2023-11-21T12:51:05;101723.94;;;15.34;100.00
75359;BME280;64046;51.978;5.934;2023-11-21T12:53:38;101722.91;;;15.19;100.00
75359;BME280;64046;51.978;5.934;2023-11-21T12:56:11;101728.22;;;15.36;100.00
75359;BME280;64046;51.978;5.934;2023-11-21T12:58:45;101727.41;;;15.34;100.00
75359;BME280;64046;51.978;5.934;2023-11-21T13:01:20;101727.31;;;15.18;100.00
75359;BME280;64046;51.978;5.934;2023-11-21T13:03:52;101729.81;;;15.21;100.00
75359;BME280;64046;51.978;5.934;2023-11-21T13:06:24;101731.38;;;15.26;100.00
75359;BME280;64046;51.978;5.934;2023-11-21T13:08:55;101731.44;;;15.24;100.00
75359;BME280;64046;51.978;5.934;2023-11-21T13:11:27;101728.13;;;15.38;100.00
75359;BME280;64046;51.978;5.934;2023-11-21T13:14:00;101738.47;;;15.43;100.00
75359;BME280;64046;51.978;5.934;2023-11-21T13:16:29;101739.13;;;15.29;100.00
75359;BME280;64046;51.978;5.934;2023-11-21T13:19:06;101738.47;;;15.43;100.00